sensor_id;sensor_type;location;lat;lon;timestamp;noise_LAeq;noise_LA_min;noise_LA_max;noise_LA01;noise_LA95
75467;Laerm;64050;50.634;3.062;2024-03-23T00:53:48;46.56;39.61;52.90;;
75467;Laerm;64050;50.634;3.062;2024-03-23T00:56:13;48.85;38.46;54.65;;
75467;Laerm;64050;50.634;3.062;2024-03-23T00:58:38;42.92;37.90;56.25;;
75467;Laerm;64050;50.634;3.062;2024-03-23T01:01:03;42.51;37.50;53.12;;
75467;Laerm;64050;50.634;3.062;2024-03-23T01:03:29;48.17;37.90;53.92;;
75467;Laerm;64050;50.634;3.062;2024-03-23T01:05:54;47.14;38.27;58.24;;
75467;Laerm;64050;50.634;3.062;2024-03-23T01:08:23;46.60;39.67;53.09;;
75467;Laerm;64050;50.634;3.062;2024-03-23T01:10:58;44.87;38.35;54.37;;
75467;Laerm;64050;50.634;3.062;2024-03-23T01:13:23;48.88;39.60;54.98;;
75467;Laerm;64050;50.634;3.062;2024-03-23T01:15:52;49.47;41.00;72.26;;
75467;Laerm;64050;50.634;3.062;2024-03-23T01:18:17;46.15;38.91;56.38;;
75467;Laerm;64050;50.634;3.062;2024-03-23T01:20:43;47.50;38.01;54.07;;
75467;Laerm;64050;50.634;3.062;2024-03-23T01:23:08;41.86;37.25;55.74;;
75467;Laerm;64050;50.634;3.062;2024-03-23T01:25:33;41.35;35.85;55.37;;
75467;Laerm;64050;50.634;3.062;2024-03-23T01:27:58;43.57;35.62;53.62;;
75467;Laerm;64050;50.634;3.062;2024-03-23T01:30:24;47.08;36.38;56.23;;
75467;Laerm;64050;50.634;3.062;2024-03-23T01:32:49;41.67;35.98;58.70;;
75467;Laerm;64050;50.634;3.062;2024-03-23T01:35:14;42.21;35.88;51.12;;
75467;Laerm;64050;50.634;3.062;2024-03-23T01:37:39;47.42;35.99;54.25;;
75467;Laerm;64050;50.634;3.062;2024-03-23T01:40:05;38.74;35.12;51.44;;
75467;Laerm;64050;50.634;3.062;2024-03-23T01:42:30;39.28;35.15;50.31;;
75467;Laerm;64050;50.634;3.062;2024-03-23T01:44:55;44.81;35.58;58.28;;
75467;Laerm;64050;50.634;3.062;2024-03-23T01:47:20;46.58;34.13;51.72;;
75467;Laerm;64050;50.634;3.062;2024-03-23T01:49:46;38.15;34.76;56.85;;
75467;Laerm;64050;50.634;3.062;2024-03-23T01:52:11;38.49;35.34;50.28;;
75467;Laerm;64050;50.634;3.062;2024-03-23T01:54:36;47.42;35.87;51.21;;
75467;Laerm;64050;50.634;3.062;2024-03-23T01:57:01;42.34;35.03;52.30;;
75467;Laerm;64050;50.634;3.062;2024-03-23T01:59:27;37.78;35.11;50.99;;
75467;Laerm;64050;50.634;3.062;2024-03-23T02:01:52;43.68;35.06;50.34;;
75467;Laerm;64050;50.634;3.062;2024-03-23T02:04:17;46.10;33.81;51.21;;
75467;Laerm;64050;50.634;3.062;2024-03-23T02:06:42;38.35;34.34;49.54;;
75467;Laerm;64050;50.634;3.062;2024-03-23T02:09:07;38.37;35.53;47.87;;
75467;Laerm;64050;50.634;3.062;2024-03-23T02:11:33;44.54;35.19;51.22;;
75467;Laerm;64050;50.634;3.062;2024-03-23T02:13:58;44.78;33.54;50.48;;
75467;Laerm;64050;50.634;3.062;2024-03-23T02:16:23;37.54;34.33;47.15;;
75467;Laerm;64050;50.634;3.062;2024-03-23T02:18:49;38.37;35.43;48.97;;
75467;Laerm;64050;50.634;3.062;2024-03-23T02:21:15;47.45;35.90;60.90;;
75467;Laerm;64050;50.634;3.062;2024-03-23T02:23:40;42.27;33.98;52.30;;
75467;Laerm;64050;50.634;3.062;2024-03-23T02:26:05;38.32;35.51;50.98;;
75467;Laerm;64050;50.634;3.062;2024-03-23T02:28:30;45.31;36.06;50.91;;
75467;Laerm;64050;50.634;3.062;2024-03-23T02:30:56;44.71;35.05;51.89;;
75467;Laerm;64050;50.634;3.062;2024-03-23T02:33:21;37.22;33.93;49.72;;
75467;Laerm;64050;50.634;3.062;2024-03-23T02:35:47;42.22;34.42;53.96;;
75467;Laerm;64050;50.634;3.062;2024-03-23T02:38:12;46.07;35.86;50.34;;
75467;Laerm;64050;50.634;3.062;2024-03-23T02:40:37;38.33;35.05;47.39;;
75467;Laerm;64050;50.634;3.062;2024-03-23T02:43:03;38.94;34.68;49.17;;
75467;Laerm;64050;50.634;3.062;2024-03-23T02:45:28;45.78;34.42;50.25;;
75467;Laerm;64050;50.634;3.062;2024-03-23T02:47:53;42.82;34.70;49.09;;
75467;Laerm;64050;50.634;3.062;2024-03-23T02:50:19;41.47;35.60;51.33;;
75467;Laerm;64050;50.634;3.062;2024-03-23T02:52:44;41.74;34.03;63.25;;
75467;Laerm;64050;50.634;3.062;2024-03-23T02:55:09;46.45;35.69;51.79;;
75467;Laerm;64050;50.634;3.062;2024-03-23T02:57:35;44.22;35.03;51.02;;
75467;Laerm;64050;50.634;3.062;2024-03-23T03:00:00;37.53;33.85;47.26;;
75467;Laerm;64050;50.634;3.062;2024-03-23T03:02:25;37.98;35.18;46.28;;
75467;Laerm;64050;50.634;3.062;2024-03-23T03:04:50;45.36;35.36;50.69;;
75467;Laerm;64050;50.634;3.062;2024-03-23T03:07:15;43.79;34.42;51.04;;
75467;Laerm;64050;50.634;3.062;2024-03-23T03:09:41;37.72;34.61;48.67;;
75467;Laerm;64050;50.634;3.062;2024-03-23T03:12:06;43.63;35.16;53.34;;
75467;Laerm;64050;50.634;3.062;2024-03-23T03:14:31;44.93;35.16;50.32;;
75467;Laerm;64050;50.634;3.062;2024-03-23T03:16:57;38.35;35.08;45.90;;
75467;Laerm;64050;50.634;3.062;2024-03-23T03:19:22;38.31;35.47;47.18;;
75467;Laerm;64050;50.634;3.062;2024-03-23T03:21:47;40.63;35.64;50.90;;
75467;Laerm;64050;50.634;3.062;2024-03-23T03:24:13;46.64;35.06;50.62;;
75467;Laerm;64050;50.634;3.062;2024-03-23T03:26:38;38.29;35.34;45.65;;
75467;Laerm;64050;50.634;3.062;2024-03-23T03:29:03;38.97;36.07;48.66;;
75467;Laerm;64050;50.634;3.062;2024-03-23T03:31:28;47.21;36.70;62.21;;
75467;Laerm;64050;50.634;3.062;2024-03-23T03:33:53;39.09;34.23;49.11;;
75467;Laerm;64050;50.634;3.062;2024-03-23T03:36:19;43.26;35.45;57.70;;
75467;Laerm;64050;50.634;3.062;2024-03-23T03:38:44;39.97;35.69;50.43;;
75467;Laerm;64050;50.634;3.062;2024-03-23T03:41:10;45.26;35.85;50.83;;
75467;Laerm;64050;50.634;3.062;2024-03-23T03:43:35;42.85;34.10;50.72;;
75467;Laerm;64050;50.634;3.062;2024-03-23T03:46:02;38.49;35.90;49.21;;
75467;Laerm;64050;50.634;3.062;2024-03-23T03:48:28;43.62;35.67;54.07;;
75467;Laerm;64050;50.634;3.062;2024-03-23T03:50:53;44.93;34.15;52.80;;
75467;Laerm;64050;50.634;3.062;2024-03-23T03:53:19;37.52;34.48;46.90;;
75467;Laerm;64050;50.634;3.062;2024-03-23T03:55:44;37.73;35.44;46.00;;
75467;Laerm;64050;50.634;3.062;2024-03-23T03:58:09;42.13;35.32;50.87;;
75467;Laerm;64050;50.634;3.062;2024-03-23T04:00:34;45.64;34.95;50.43;;
75467;Laerm;64050;50.634;3.062;2024-03-23T04:03:00;38.24;35.23;46.50;;
75467;Laerm;64050;50.634;3.062;2024-03-23T04:05:25;37.79;35.57;46.26;;
75467;Laerm;64050;50.634;3.062;2024-03-23T04:07:51;45.70;35.90;49.58;;
75467;Laerm;64050;50.634;3.062;2024-03-23T04:10:16;42.81;34.76;50.11;;
75467;Laerm;64050;50.634;3.062;2024-03-23T04:12:41;38.70;34.86;56.94;;
75467;Laerm;64050;50.634;3.062;2024-03-23T04:15:07;37.75;35.38;48.87;;
75467;Laerm;64050;50.634;3.062;2024-03-23T04:17:32;46.71;35.34;52.24;;
75467;Laerm;64050;50.634;3.062;2024-03-23T04:19:59;39.85;34.20;52.60;;
75467;Laerm;64050;50.634;3.062;2024-03-23T04:22:24;38.36;35.58;46.98;;
75467;Laerm;64050;50.634;3.062;2024-03-23T04:24:52;44.92;35.47;60.48;;
75467;Laerm;64050;50.634;3.062;2024-03-23T04:27:17;46.32;34.66;50.29;;
75467;Laerm;64050;50.634;3.062;2024-03-23T04:29:46;38.00;34.72;46.87;;
75467;Laerm;64050;50.634;3.062;2024-03-23T04:32:11;38.64;35.78;46.31;;
75467;Laerm;64050;50.634;3.062;2024-03-23T04:34:36;46.29;35.62;51.84;;
75467;Laerm;64050;50.634;3.062;2024-03-23T04:37:01;40.45;33.87;52.25;;
75467;Laerm;64050;50.634;3.062;2024-03-23T04:39:27;38.47;35.21;49.25;;
75467;Laerm;64050;50.634;3.062;2024-03-23T04:41:52;37.90;35.12;52.74;;
75467;Laerm;64050;50.634;3.062;2024-03-23T04:44:17;46.07;36.86;51.32;;
75467;Laerm;64050;50.634;3.062;2024-03-23T04:46:43;44.70;39.16;51.32;;
75467;Laerm;64050;50.634;3.062;2024-03-23T04:49:08;42.72;39.50;47.32;;
75467;Laerm;64050;50.634;3.062;2024-03-23T04:51:36;45.39;39.86;50.76;;
75467;Laerm;64050;50.634;3.062;2024-03-23T04:54:06;46.47;39.62;51.63;;
75467;Laerm;64050;50.634;3.062;2024-03-23T04:56:31;42.48;38.91;48.16;;
75467;Laerm;64050;50.634;3.062;2024-03-23T04:58:58;42.78;39.04;49.01;;
75467;Laerm;64050;50.634;3.062;2024-03-23T05:01:26;43.09;39.64;50.40;;
75467;Laerm;64050;50.634;3.062;2024-03-23T05:03:53;47.35;39.96;52.68;;
75467;Laerm;64050;50.634;3.062;2024-03-23T05:06:18;44.23;39.99;55.98;;
75467;Laerm;64050;50.634;3.062;2024-03-23T05:08:44;42.80;38.85;48.14;;
75467;Laerm;64050;50.634;3.062;2024-03-23T05:11:09;46.99;39.89;53.49;;
75467;Laerm;64050;50.634;3.062;2024-03-23T05:13:35;45.25;39.29;52.94;;
75467;Laerm;64050;50.634;3.062;2024-03-23T05:16:00;42.85;39.45;51.05;;
75467;Laerm;64050;50.634;3.062;2024-03-23T05:18:25;43.04;39.45;51.39;;
75467;Laerm;64050;50.634;3.062;2024-03-23T05:20:59;50.13;42.45;63.65;;
75467;Laerm;64050;50.634;3.062;2024-03-23T05:23:24;44.59;40.24;55.51;;
75467;Laerm;64050;50.634;3.062;2024-03-23T05:25:50;43.44;40.05;52.91;;
75467;Laerm;64050;50.634;3.062;2024-03-23T05:28:16;44.13;39.37;52.61;;
75467;Laerm;64050;50.634;3.062;2024-03-23T05:30:42;47.98;39.78;52.26;;
75467;Laerm;64050;50.634;3.062;2024-03-23T05:33:07;42.77;39.42;49.90;;
75467;Laerm;64050;50.634;3.062;2024-03-23T05:35:32;42.73;39.24;49.26;;
75467;Laerm;64050;50.634;3.062;2024-03-23T05:37:58;46.50;39.88;54.69;;
75467;Laerm;64050;50.634;3.062;2024-03-23T05:40:26;47.19;39.82;56.87;;
75467;Laerm;64050;50.634;3.062;2024-03-23T05:42:51;45.54;40.98;51.72;;
75467;Laerm;64050;50.634;3.062;2024-03-23T05:45:21;46.07;40.19;54.91;;
75467;Laerm;64050;50.634;3.062;2024-03-23T05:47:47;46.87;39.87;52.93;;
75467;Laerm;64050;50.634;3.062;2024-03-23T05:50:12;48.51;41.20;60.80;;
75467;Laerm;64050;50.634;3.062;2024-03-23T05:52:38;51.39;43.45;60.34;;
75467;Laerm;64050;50.634;3.062;2024-03-23T05:55:03;45.25;40.36;53.35;;
75467;Laerm;64050;50.634;3.062;2024-03-23T05:57:29;47.44;39.70;57.11;;
75467;Laerm;64050;50.634;3.062;2024-03-23T05:59:54;45.63;39.66;53.80;;
75467;Laerm;64050;50.634;3.062;2024-03-23T06:02:19;43.40;38.72;50.28;;
75467;Laerm;64050;50.634;3.062;2024-03-23T06:04:45;43.52;39.44;48.99;;
75467;Laerm;64050;50.634;3.062;2024-03-23T06:07:10;44.93;40.60;52.56;;
75467;Laerm;64050;50.634;3.062;2024-03-23T06:09:38;43.19;38.27;56.62;;
75467;Laerm;64050;50.634;3.062;2024-03-23T06:12:04;42.92;38.18;58.22;;
75467;Laerm;64050;50.634;3.062;2024-03-23T06:14:29;45.13;38.69;57.23;;
75467;Laerm;64050;50.634;3.062;2024-03-23T06:16:54;47.93;38.72;54.68;;
75467;Laerm;64050;50.634;3.062;2024-03-23T06:19:19;42.09;38.19;55.41;;
75467;Laerm;64050;50.634;3.062;2024-03-23T06:21:45;44.97;38.82;57.17;;
75467;Laerm;64050;50.634;3.062;2024-03-23T06:24:11;44.01;40.02;63.33;;
75467;Laerm;64050;50.634;3.062;2024-03-23T06:26:36;44.51;39.60;53.19;;
75467;Laerm;64050;50.634;3.062;2024-03-23T06:29:01;43.92;39.96;52.39;;
75467;Laerm;64050;50.634;3.062;2024-03-23T06:31:26;44.59;40.34;56.82;;
75467;Laerm;64050;50.634;3.062;2024-03-23T06:33:54;44.60;38.62;52.55;;
75467;Laerm;64050;50.634;3.062;2024-03-23T06:36:20;46.49;39.02;53.00;;
75467;Laerm;64050;50.634;3.062;2024-03-23T06:38:45;44.74;38.70;51.79;;
75467;Laerm;64050;50.634;3.062;2024-03-23T06:41:10;42.74;38.94;49.57;;
75467;Laerm;64050;50.634;3.062;2024-03-23T06:43:36;49.81;40.13;57.80;;
75467;Laerm;64050;50.634;3.062;2024-03-23T06:46:02;43.15;38.89;61.10;;
75467;Laerm;64050;50.634;3.062;2024-03-23T06:48:28;45.36;39.05;56.72;;
75467;Laerm;64050;50.634;3.062;2024-03-23T06:50:56;50.24;46.88;52.96;;
75467;Laerm;64050;50.634;3.062;2024-03-23T06:53:22;44.08;39.94;53.43;;
75467;Laerm;64050;50.634;3.062;2024-03-23T06:55:50;44.53;40.74;54.94;;
75467;Laerm;64050;50.634;3.062;2024-03-23T06:58:15;50.77;41.01;60.74;;
75467;Laerm;64050;50.634;3.062;2024-03-23T07:00:40;47.11;39.82;56.36;;
75467;Laerm;64050;50.634;3.062;2024-03-23T07:03:05;48.34;40.34;59.90;;
75467;Laerm;64050;50.634;3.062;2024-03-23T07:05:32;48.81;39.75;56.50;;
75467;Laerm;64050;50.634;3.062;2024-03-23T07:07:57;53.32;39.72;68.01;;
75467;Laerm;64050;50.634;3.062;2024-03-23T07:10:22;42.87;39.22;53.02;;
75467;Laerm;64050;50.634;3.062;2024-03-23T07:12:47;46.90;39.87;66.85;;
75467;Laerm;64050;50.634;3.062;2024-03-23T07:15:13;48.06;39.65;62.15;;
75467;Laerm;64050;50.634;3.062;2024-03-23T07:17:38;49.01;39.69;62.66;;
75467;Laerm;64050;50.634;3.062;2024-03-23T07:20:03;44.15;40.35;51.55;;
75467;Laerm;64050;50.634;3.062;2024-03-23T07:22:31;45.58;39.36;56.30;;
75467;Laerm;64050;50.634;3.062;2024-03-23T07:24:57;50.33;46.03;55.44;;
75467;Laerm;64050;50.634;3.062;2024-03-23T07:27:22;47.08;39.47;64.31;;
75467;Laerm;64050;50.634;3.062;2024-03-23T07:29:48;44.43;39.06;61.57;;
75467;Laerm;64050;50.634;3.062;2024-03-23T07:32:14;47.62;39.52;65.54;;
75467;Laerm;64050;50.634;3.062;2024-03-23T07:34:39;50.23;39.33;62.59;;
75467;Laerm;64050;50.634;3.062;2024-03-23T07:37:04;42.98;39.30;57.62;;
75467;Laerm;64050;50.634;3.062;2024-03-23T07:39:30;45.71;39.54;60.61;;
75467;Laerm;64050;50.634;3.062;2024-03-23T07:41:58;48.38;39.67;60.22;;
75467;Laerm;64050;50.634;3.062;2024-03-23T07:44:23;49.34;40.58;61.47;;
75467;Laerm;64050;50.634;3.062;2024-03-23T07:46:48;44.48;40.87;48.46;;
75467;Laerm;64050;50.634;3.062;2024-03-23T07:49:13;47.28;41.49;58.08;;
75467;Laerm;64050;50.634;3.062;2024-03-23T07:51:38;50.47;42.28;56.75;;
75467;Laerm;64050;50.634;3.062;2024-03-23T07:54:04;47.24;41.90;60.59;;
75467;Laerm;64050;50.634;3.062;2024-03-23T07:56:29;50.22;42.58;58.45;;
75467;Laerm;64050;50.634;3.062;2024-03-23T07:58:55;48.54;41.65;56.74;;
75467;Laerm;64050;50.634;3.062;2024-03-23T08:01:20;57.64;44.11;66.82;;
75467;Laerm;64050;50.634;3.062;2024-03-23T08:03:45;53.78;42.99;70.01;;
75467;Laerm;64050;50.634;3.062;2024-03-23T08:08:36;49.08;40.49;65.06;;
75467;Laerm;64050;50.634;3.062;2024-03-23T08:11:02;48.19;39.89;64.21;;
75467;Laerm;64050;50.634;3.062;2024-03-23T08:13:28;50.00;39.33;66.06;;
75467;Laerm;64050;50.634;3.062;2024-03-23T08:15:57;50.95;40.32;68.99;;
75467;Laerm;64050;50.634;3.062;2024-03-23T08:18:22;45.58;40.11;58.11;;
75467;Laerm;64050;50.634;3.062;2024-03-23T08:20:54;49.19;41.81;59.00;;
75467;Laerm;64050;50.634;3.062;2024-03-23T08:23:20;50.39;41.48;59.92;;
75467;Laerm;64050;50.634;3.062;2024-03-23T08:25:45;45.04;40.66;59.14;;
75467;Laerm;64050;50.634;3.062;2024-03-23T08:28:10;47.77;40.79;66.64;;
75467;Laerm;64050;50.634;3.062;2024-03-23T08:30:35;50.76;42.94;68.53;;
75467;Laerm;64050;50.634;3.062;2024-03-23T08:33:01;51.12;42.66;74.70;;
75467;Laerm;64050;50.634;3.062;2024-03-23T08:35:26;49.11;43.72;67.37;;
75467;Laerm;64050;50.634;3.062;2024-03-23T08:37:51;53.39;40.96;73.05;;
75467;Laerm;64050;50.634;3.062;2024-03-23T08:40:16;55.21;41.45;70.06;;
75467;Laerm;64050;50.634;3.062;2024-03-23T08:42:41;57.66;52.55;75.36;;
75467;Laerm;64050;50.634;3.062;2024-03-23T08:45:07;56.54;51.72;68.52;;
75467;Laerm;64050;50.634;3.062;2024-03-23T08:47:34;57.49;43.65;69.64;;
75467;Laerm;64050;50.634;3.062;2024-03-23T08:49:59;52.48;40.25;72.49;;
75467;Laerm;64050;50.634;3.062;2024-03-23T08:52:24;56.19;41.05;75.16;;
75467;Laerm;64050;50.634;3.062;2024-03-23T08:54:53;57.01;50.50;73.82;;
75467;Laerm;64050;50.634;3.062;2024-03-23T08:57:18;55.81;47.23;72.07;;
75467;Laerm;64050;50.634;3.062;2024-03-23T08:59:43;53.83;40.57;68.50;;
75467;Laerm;64050;50.634;3.062;2024-03-23T09:02:09;48.58;41.56;63.45;;
75467;Laerm;64050;50.634;3.062;2024-03-23T09:04:34;51.94;41.20;67.85;;
75467;Laerm;64050;50.634;3.062;2024-03-23T09:07:00;52.15;41.05;67.49;;
75467;Laerm;64050;50.634;3.062;2024-03-23T09:09:25;51.02;45.87;59.22;;
75467;Laerm;64050;50.634;3.062;2024-03-23T09:11:50;51.71;43.26;63.37;;
75467;Laerm;64050;50.634;3.062;2024-03-23T09:14:16;49.61;41.47;61.07;;
75467;Laerm;64050;50.634;3.062;2024-03-23T09:16:41;48.75;42.04;61.04;;
75467;Laerm;64050;50.634;3.062;2024-03-23T09:19:06;49.73;43.12;61.14;;
75467;Laerm;64050;50.634;3.062;2024-03-23T09:21:31;49.15;42.60;67.89;;
75467;Laerm;64050;50.634;3.062;2024-03-23T09:23:57;47.52;40.98;60.34;;
75467;Laerm;64050;50.634;3.062;2024-03-23T09:26:22;46.42;40.12;60.17;;
75467;Laerm;64050;50.634;3.062;2024-03-23T09:28:50;48.51;41.57;55.26;;
75467;Laerm;64050;50.634;3.062;2024-03-23T09:31:15;49.20;42.72;62.31;;
75467;Laerm;64050;50.634;3.062;2024-03-23T09:33:41;45.08;40.40;57.81;;
75467;Laerm;64050;50.634;3.062;2024-03-23T09:36:06;48.15;41.51;52.77;;
75467;Laerm;64050;50.634;3.062;2024-03-23T09:38:32;48.91;44.89;56.59;;
75467;Laerm;64050;50.634;3.062;2024-03-23T09:40:57;47.79;41.12;54.26;;
75467;Laerm;64050;50.634;3.062;2024-03-23T09:43:23;46.67;41.05;66.70;;
75467;Laerm;64050;50.634;3.062;2024-03-23T09:45:49;49.08;45.56;55.92;;
75467;Laerm;64050;50.634;3.062;2024-03-23T09:48:14;49.83;41.72;68.97;;
75467;Laerm;64050;50.634;3.062;2024-03-23T09:50:40;48.11;41.56;63.54;;
75467;Laerm;64050;50.634;3.062;2024-03-23T09:53:09;47.51;40.98;62.72;;
75467;Laerm;64050;50.634;3.062;2024-03-23T09:55:36;50.43;41.90;66.05;;
75467;Laerm;64050;50.634;3.062;2024-03-23T09:58:02;47.68;42.64;66.48;;
75467;Laerm;64050;50.634;3.062;2024-03-23T10:00:27;46.05;41.52;60.87;;
75467;Laerm;64050;50.634;3.062;2024-03-23T10:02:54;49.56;41.73;65.91;;
75467;Laerm;64050;50.634;3.062;2024-03-23T10:05:20;48.98;41.74;61.99;;
75467;Laerm;64050;50.634;3.062;2024-03-23T10:07:52;47.52;41.79;57.03;;
75467;Laerm;64050;50.634;3.062;2024-03-23T10:10:17;47.06;42.69;57.06;;
75467;Laerm;64050;50.634;3.062;2024-03-23T10:12:46;48.42;42.00;60.47;;
75467;Laerm;64050;50.634;3.062;2024-03-23T10:15:17;54.94;43.85;78.29;;
75467;Laerm;64050;50.634;3.062;2024-03-23T10:17:43;48.64;42.09;55.26;;
75467;Laerm;64050;50.634;3.062;2024-03-23T10:20:09;46.51;41.34;57.95;;
75467;Laerm;64050;50.634;3.062;2024-03-23T10:22:36;45.42;41.16;63.34;;
75467;Laerm;64050;50.634;3.062;2024-03-23T10:25:08;48.50;41.27;67.41;;
75467;Laerm;64050;50.634;3.062;2024-03-23T10:27:34;48.99;42.09;60.40;;
75467;Laerm;64050;50.634;3.062;2024-03-23T10:30:07;58.74;42.06;87.64;;
75467;Laerm;64050;50.634;3.062;2024-03-23T10:32:33;46.71;42.40;59.07;;
75467;Laerm;64050;50.634;3.062;2024-03-23T10:35:13;50.32;44.39;65.36;;
75467;Laerm;64050;50.634;3.062;2024-03-23T10:37:38;47.44;41.83;53.53;;
75467;Laerm;64050;50.634;3.062;2024-03-23T10:40:03;46.45;41.42;53.92;;
75467;Laerm;64050;50.634;3.062;2024-03-23T10:42:30;45.95;42.12;58.22;;
75467;Laerm;64050;50.634;3.062;2024-03-23T10:44:56;50.34;42.64;56.93;;
75467;Laerm;64050;50.634;3.062;2024-03-23T10:47:21;52.25;43.21;67.33;;
75467;Laerm;64050;50.634;3.062;2024-03-23T10:49:46;51.74;42.92;71.44;;
75467;Laerm;64050;50.634;3.062;2024-03-23T10:52:13;45.85;42.18;53.37;;
75467;Laerm;64050;50.634;3.062;2024-03-23T10:54:38;47.77;42.23;61.46;;
75467;Laerm;64050;50.634;3.062;2024-03-23T10:57:08;47.88;42.63;66.36;;
75467;Laerm;64050;50.634;3.062;2024-03-23T10:59:35;46.45;42.94;56.06;;
75467;Laerm;64050;50.634;3.062;2024-03-23T11:02:02;53.55;42.31;71.72;;
75467;Laerm;64050;50.634;3.062;2024-03-23T11:04:34;51.55;43.88;69.57;;
75467;Laerm;64050;50.634;3.062;2024-03-23T11:07:00;49.87;43.14;74.76;;
75467;Laerm;64050;50.634;3.062;2024-03-23T11:09:38;50.22;43.09;69.12;;
75467;Laerm;64050;50.634;3.062;2024-03-23T11:12:17;49.81;42.52;57.52;;
75467;Laerm;64050;50.634;3.062;2024-03-23T11:14:43;51.94;43.53;60.13;;
75467;Laerm;64050;50.634;3.062;2024-03-23T11:17:08;48.98;42.98;55.54;;
75467;Laerm;64050;50.634;3.062;2024-03-23T11:19:35;52.43;46.80;68.10;;
75467;Laerm;64050;50.634;3.062;2024-03-23T11:22:04;52.99;48.98;71.74;;
75467;Laerm;64050;50.634;3.062;2024-03-23T11:24:33;50.93;46.63;56.53;;
75467;Laerm;64050;50.634;3.062;2024-03-23T11:26:59;49.82;46.47;54.44;;
75467;Laerm;64050;50.634;3.062;2024-03-23T11:29:26;50.94;46.66;60.67;;
75467;Laerm;64050;50.634;3.062;2024-03-23T11:31:52;53.24;48.25;60.35;;
75467;Laerm;64050;50.634;3.062;2024-03-23T11:34:20;53.70;49.42;58.93;;
75467;Laerm;64050;50.634;3.062;2024-03-23T11:36:46;53.56;49.32;57.92;;
75467;Laerm;64050;50.634;3.062;2024-03-23T11:39:15;54.28;50.57;62.11;;
75467;Laerm;64050;50.634;3.062;2024-03-23T11:41:50;54.50;50.53;68.20;;
75467;Laerm;64050;50.634;3.062;2024-03-23T11:44:19;55.18;51.14;61.95;;
75467;Laerm;64050;50.634;3.062;2024-03-23T11:46:45;54.22;49.81;61.76;;
75467;Laerm;64050;50.634;3.062;2024-03-23T11:49:19;53.40;49.40;61.65;;
75467;Laerm;64050;50.634;3.062;2024-03-23T11:51:44;53.41;49.46;59.69;;
75467;Laerm;64050;50.634;3.062;2024-03-23T11:54:10;53.10;49.34;56.64;;
75467;Laerm;64050;50.634;3.062;2024-03-23T11:56:35;53.96;49.31;64.51;;
75467;Laerm;64050;50.634;3.062;2024-03-23T11:59:00;53.98;49.96;58.26;;
75467;Laerm;64050;50.634;3.062;2024-03-23T12:01:25;53.54;49.77;59.38;;
75467;Laerm;64050;50.634;3.062;2024-03-23T12:03:50;55.84;50.53;71.99;;
75467;Laerm;64050;50.634;3.062;2024-03-23T12:06:19;55.60;49.23;71.55;;
75467;Laerm;64050;50.634;3.062;2024-03-23T12:08:44;53.93;50.48;62.18;;
75467;Laerm;64050;50.634;3.062;2024-03-23T12:11:13;53.26;49.38;57.71;;
75467;Laerm;64050;50.634;3.062;2024-03-23T12:13:40;52.78;49.35;57.32;;
75467;Laerm;64050;50.634;3.062;2024-03-23T12:16:09;52.76;49.53;56.30;;
75467;Laerm;64050;50.634;3.062;2024-03-23T12:18:34;52.74;49.27;56.60;;
75467;Laerm;64050;50.634;3.062;2024-03-23T12:20:59;52.71;48.90;57.50;;
75467;Laerm;64050;50.634;3.062;2024-03-23T12:23:25;52.84;48.94;57.96;;
75467;Laerm;64050;50.634;3.062;2024-03-23T12:25:50;52.83;49.40;56.74;;
75467;Laerm;64050;50.634;3.062;2024-03-23T12:28:15;53.00;49.52;58.09;;
75467;Laerm;64050;50.634;3.062;2024-03-23T12:30:41;53.81;49.84;60.99;;
75467;Laerm;64050;50.634;3.062;2024-03-23T12:33:06;55.34;50.82;74.59;;
75467;Laerm;64050;50.634;3.062;2024-03-23T12:35:32;54.02;50.37;68.12;;
75467;Laerm;64050;50.634;3.062;2024-03-23T12:37:57;54.41;49.96;68.58;;
75467;Laerm;64050;50.634;3.062;2024-03-23T12:40:22;54.00;50.17;64.07;;
75467;Laerm;64050;50.634;3.062;2024-03-23T12:42:47;53.53;49.66;62.74;;
75467;Laerm;64050;50.634;3.062;2024-03-23T12:45:13;53.65;49.31;63.04;;
75467;Laerm;64050;50.634;3.062;2024-03-23T12:47:38;54.25;49.84;64.78;;
75467;Laerm;64050;50.634;3.062;2024-03-23T12:50:03;53.88;49.12;63.15;;
75467;Laerm;64050;50.634;3.062;2024-03-23T12:52:29;53.57;49.60;61.90;;
75467;Laerm;64050;50.634;3.062;2024-03-23T12:54:57;54.10;49.30;65.51;;
75467;Laerm;64050;50.634;3.062;2024-03-23T12:57:23;54.50;49.58;66.13;;
75467;Laerm;64050;50.634;3.062;2024-03-23T12:59:49;53.56;49.77;61.90;;
75467;Laerm;64050;50.634;3.062;2024-03-23T13:02:16;62.64;50.85;71.73;;
75467;Laerm;64050;50.634;3.062;2024-03-23T13:04:41;58.45;49.71;69.13;;
75467;Laerm;64050;50.634;3.062;2024-03-23T13:07:07;53.78;49.99;58.15;;
75467;Laerm;64050;50.634;3.062;2024-03-23T13:09:32;53.98;50.38;57.86;;
75467;Laerm;64050;50.634;3.062;2024-03-23T13:11:57;53.52;48.99;67.70;;
75467;Laerm;64050;50.634;3.062;2024-03-23T13:14:22;52.75;48.96;57.62;;
75467;Laerm;64050;50.634;3.062;2024-03-23T13:16:48;52.88;49.25;59.17;;
75467;Laerm;64050;50.634;3.062;2024-03-23T13:19:13;53.81;48.89;61.75;;
75467;Laerm;64050;50.634;3.062;2024-03-23T13:21:38;53.32;48.99;60.59;;
75467;Laerm;64050;50.634;3.062;2024-03-23T13:24:04;52.85;48.80;60.63;;
75467;Laerm;64050;50.634;3.062;2024-03-23T13:26:29;53.03;48.88;59.25;;
75467;Laerm;64050;50.634;3.062;2024-03-23T13:28:54;52.61;49.23;57.25;;
75467;Laerm;64050;50.634;3.062;2024-03-23T13:31:19;53.40;49.08;58.97;;
75467;Laerm;64050;50.634;3.062;2024-03-23T13:33:45;53.36;49.63;64.30;;
75467;Laerm;64050;50.634;3.062;2024-03-23T13:36:10;54.08;50.23;65.88;;
75467;Laerm;64050;50.634;3.062;2024-03-23T13:38:35;53.79;49.70;70.24;;
75467;Laerm;64050;50.634;3.062;2024-03-23T13:41:00;53.40;49.76;58.52;;
75467;Laerm;64050;50.634;3.062;2024-03-23T13:43:26;53.57;49.70;65.93;;
75467;Laerm;64050;50.634;3.062;2024-03-23T13:45:55;53.51;49.17;61.67;;
75467;Laerm;64050;50.634;3.062;2024-03-23T13:48:21;53.88;49.21;62.90;;
75467;Laerm;64050;50.634;3.062;2024-03-23T13:50:47;55.12;49.98;68.33;;
75467;Laerm;64050;50.634;3.062;2024-03-23T13:53:13;55.14;50.88;59.57;;
75467;Laerm;64050;50.634;3.062;2024-03-23T13:55:45;53.40;49.08;70.93;;
75467;Laerm;64050;50.634;3.062;2024-03-23T13:58:10;52.89;48.52;57.52;;
75467;Laerm;64050;50.634;3.062;2024-03-23T14:00:37;53.95;49.49;57.18;;
75467;Laerm;64050;50.634;3.062;2024-03-23T14:03:02;52.97;48.88;58.23;;
75467;Laerm;64050;50.634;3.062;2024-03-23T14:05:27;52.72;49.20;59.13;;
75467;Laerm;64050;50.634;3.062;2024-03-23T14:07:53;53.02;49.37;65.96;;
75467;Laerm;64050;50.634;3.062;2024-03-23T14:10:18;52.84;49.06;59.48;;
75467;Laerm;64050;50.634;3.062;2024-03-23T14:12:43;52.82;49.08;60.96;;
75467;Laerm;64050;50.634;3.062;2024-03-23T14:15:08;53.36;49.38;66.30;;
75467;Laerm;64050;50.634;3.062;2024-03-23T14:17:34;53.02;49.30;64.88;;
75467;Laerm;64050;50.634;3.062;2024-03-23T14:19:59;53.45;49.53;69.20;;
75467;Laerm;64050;50.634;3.062;2024-03-23T14:22:30;52.74;48.21;57.46;;
75467;Laerm;64050;50.634;3.062;2024-03-23T14:24:55;52.73;49.29;56.48;;
75467;Laerm;64050;50.634;3.062;2024-03-23T14:27:20;53.08;49.22;59.41;;
75467;Laerm;64050;50.634;3.062;2024-03-23T14:29:46;52.90;48.64;59.70;;
75467;Laerm;64050;50.634;3.062;2024-03-23T14:32:12;53.20;48.85;57.17;;